KHAI/HAI METAR and TAF weather

Enter ICAO airport designator
Station Type Date Time Source
KHAI METAR 2020/07/09 06:55 UTC NOAA

KHAI 090655Z AUTO 00000KT 7SM CLR 23/21 A2992 RMK AO2 T02290211


Station Type Date Time Source
KHAI Decoded METAR 2020/07/09 06:55 UTC NOAA

Station name not available
Jul 09, 2020 - 02:55 AM EDT / 2020.07.09 0655 UTC
Wind: Calm:0
Visibility: 7 mile(s):0
Sky conditions: clear
Temperature: 73.2 F (22.9 C)
Dew Point: 70.0 F (21.1 C)
Relative Humidity: 89%
Pressure (altimeter): 29.92 in. Hg (1013 hPa)
ob: KHAI 090655Z AUTO 00000KT 7SM CLR 23/21 A2992 RMK AO2 T02290211
cycle: 7

Station Type Date Time Source
KHAI TAF UTC NOAA

Error!

Example: see airport list